createdAt,value
2018-09-24T00:01:37.043Z,6.00
2018-09-24T00:06:40.931Z,4.43
2018-09-24T00:11:45.692Z,5.50
2018-09-24T00:16:49.573Z,4.33
2018-09-24T00:21:53.905Z,4.60
2018-09-24T00:26:57.603Z,5.40
2018-09-24T00:32:01.443Z,3.73
2018-09-24T00:37:05.139Z,5.33
2018-09-24T00:42:08.796Z,5.47
2018-09-24T00:47:12.636Z,2.60
2018-09-24T00:52:16.320Z,4.20
2018-09-24T00:57:20.157Z,7.10
2018-09-24T01:02:23.857Z,4.93
2018-09-24T01:07:28.180Z,3.53
2018-09-24T01:12:32.180Z,5.97
2018-09-24T01:17:36.166Z,3.73
2018-09-24T01:22:39.972Z,3.80
2018-09-24T01:27:44.201Z,5.07
2018-09-24T01:32:48.112Z,4.43
2018-09-24T01:37:52.111Z,4.83
2018-09-24T01:42:55.935Z,7.90
2018-09-24T01:47:59.585Z,3.83
2018-09-24T01:53:15.687Z,4.47
2018-09-24T01:58:19.583Z,5.20
2018-09-24T02:03:25.696Z,5.83
2018-09-24T02:08:29.560Z,5.70
2018-09-24T02:13:33.476Z,6.03
2018-09-24T02:29:33.418Z,7.47
2018-09-24T02:34:37.292Z,5.17
2018-09-24T02:39:41.294Z,5.97
2018-09-24T02:44:45.196Z,6.57
2018-09-24T02:49:49.156Z,6.77
2018-09-24T02:54:52.974Z,7.47
2018-09-24T02:59:56.790Z,7.13
2018-09-24T03:05:00.837Z,10.43
2018-09-24T03:10:04.456Z,6.93
2018-09-24T03:15:08.165Z,6.93
2018-09-24T03:20:13.751Z,6.50
2018-09-24T03:25:18.232Z,8.03
2018-09-24T03:30:22.073Z,7.63
2018-09-24T03:35:25.763Z,7.13
2018-09-24T03:40:29.613Z,11.50
2018-09-24T03:45:33.453Z,8.20
2018-09-24T03:50:37.655Z,7.90
2018-09-24T03:55:41.913Z,12.33
2018-09-24T04:00:46.059Z,9.73
2018-09-24T04:05:55.520Z,10.33
2018-09-24T04:11:04.468Z,9.30
2018-09-24T04:16:17.137Z,10.23
2018-09-24T04:21:26.636Z,8.10
2018-09-24T04:26:49.304Z,8.70
2018-09-24T04:31:58.604Z,12.40
2018-09-24T04:37:07.507Z,8.87
2018-09-24T04:42:16.568Z,10.80
2018-09-24T04:47:25.637Z,7.70
2018-09-24T04:52:34.676Z,11.17
2018-09-24T04:57:46.834Z,8.70
2018-09-24T05:02:55.913Z,9.40
2018-09-24T05:08:05.134Z,11.13
2018-09-24T05:13:14.217Z,10.63
2018-09-24T05:18:33.045Z,11.80
2018-09-24T05:23:41.929Z,8.47
2018-09-24T05:29:00.712Z,10.77
2018-09-24T05:34:10.120Z,9.60
2018-09-24T05:39:29.579Z,11.03
2018-09-24T05:44:38.833Z,9.17
2018-09-24T05:49:47.754Z,9.47
2018-09-24T05:54:57.111Z,13.03
2018-09-24T06:00:06.191Z,10.57
2018-09-24T06:05:15.588Z,10.23
2018-09-24T06:10:24.339Z,8.77
2018-09-24T06:15:33.325Z,12.90
2018-09-24T06:20:42.825Z,8.40
2018-09-24T06:25:51.680Z,10.93
2018-09-24T06:31:08.869Z,10.10
2018-09-24T06:36:17.939Z,10.37
2018-09-24T06:41:26.839Z,13.57
2018-09-24T06:46:36.352Z,8.93
2018-09-24T06:51:59.000Z,13.70
2018-09-24T06:57:07.923Z,12.97
2018-09-24T07:02:17.059Z,11.57
2018-09-24T07:07:26.113Z,10.43
2018-09-24T07:12:35.134Z,10.07
2018-09-24T07:17:44.185Z,9.97
2018-09-24T07:22:53.091Z,12.33
2018-09-24T07:28:02.321Z,8.73
2018-09-24T07:33:11.318Z,11.83
2018-09-24T07:38:20.160Z,10.00
2018-09-24T07:43:29.160Z,11.90
2018-09-24T07:48:38.260Z,7.63
2018-09-24T07:53:47.623Z,9.97
2018-09-24T07:58:56.500Z,8.10
2018-09-24T08:04:05.467Z,7.37
2018-09-24T08:09:21.061Z,7.50
2018-09-24T08:14:30.293Z,7.97
2018-09-24T08:19:39.068Z,6.70
2018-09-24T08:24:48.132Z,4.10
2018-09-24T08:29:57.075Z,4.20
2018-09-24T08:35:06.119Z,6.80
2018-09-24T08:40:15.044Z,6.00
2018-09-24T08:45:24.104Z,6.20
2018-09-24T08:50:33.152Z,6.83
2018-09-24T08:55:42.540Z,5.83
2018-09-24T09:00:51.788Z,5.67
2018-09-24T09:06:00.709Z,6.40
2018-09-24T09:11:09.964Z,4.03
2018-09-24T09:16:18.975Z,3.53
2018-09-24T09:21:28.300Z,6.37
2018-09-24T09:26:37.621Z,5.30
2018-09-24T09:31:46.493Z,3.67
2018-09-24T09:36:56.105Z,4.70
2018-09-24T09:42:17.955Z,5.50
2018-09-24T09:47:26.890Z,5.97
2018-09-24T09:52:36.098Z,3.53
2018-09-24T09:57:45.229Z,4.37
2018-09-24T10:02:54.081Z,5.07
2018-09-24T10:08:13.266Z,3.33
2018-09-24T10:13:22.823Z,5.60
2018-09-24T10:18:31.685Z,3.60
2018-09-24T10:23:40.737Z,2.63
2018-09-24T10:28:49.967Z,2.37
2018-09-24T10:33:58.952Z,5.23
2018-09-24T10:39:08.004Z,3.23
2018-09-24T10:44:17.112Z,4.70
2018-09-24T10:49:27.411Z,3.63
2018-09-24T10:54:36.474Z,3.37
2018-09-24T10:59:45.932Z,1.80
2018-09-24T11:04:54.787Z,2.63
2018-09-24T11:10:05.538Z,3.70
2018-09-24T11:15:14.730Z,4.50
2018-09-24T11:20:23.768Z,2.37
2018-09-24T11:25:32.711Z,3.77
2018-09-24T11:30:41.655Z,3.17
2018-09-24T11:35:50.549Z,3.87
2018-09-24T11:40:59.450Z,1.53
2018-09-24T11:46:08.464Z,2.53
2018-09-24T11:51:18.164Z,4.23
2018-09-24T11:56:27.219Z,3.17
2018-09-24T12:01:36.565Z,3.60
2018-09-24T12:06:45.525Z,3.67
2018-09-24T12:11:54.519Z,3.40
2018-09-24T12:17:03.922Z,2.73
2018-09-24T12:22:12.925Z,2.87
2018-09-24T12:27:22.026Z,2.27
2018-09-24T12:32:31.309Z,2.43
2018-09-24T12:37:40.697Z,2.03
2018-09-24T12:42:49.685Z,1.63
2018-09-24T12:47:59.033Z,1.90
2018-09-24T12:53:07.909Z,2.60
2018-09-24T12:58:20.137Z,3.00
2018-09-24T13:03:44.720Z,2.70
2018-09-24T13:09:05.263Z,3.40
2018-09-24T13:14:14.128Z,5.87
2018-09-24T13:19:23.052Z,4.33
2018-09-24T13:24:32.023Z,4.10
2018-09-24T13:29:41.116Z,3.20
2018-09-24T13:34:50.092Z,4.77
2018-09-24T13:39:59.322Z,4.03
2018-09-24T13:45:08.459Z,2.57
2018-09-24T13:50:17.373Z,4.83
2018-09-24T13:55:26.630Z,3.23
2018-09-24T14:00:35.692Z,3.47
2018-09-24T14:05:44.712Z,3.63
2018-09-24T14:10:53.797Z,4.67
2018-09-24T14:16:03.124Z,3.97
2018-09-24T14:21:12.190Z,4.33
2018-09-24T14:26:21.121Z,5.20
2018-09-24T14:31:30.123Z,4.27
2018-09-24T14:36:44.806Z,6.40
2018-09-24T14:41:54.124Z,4.57
2018-09-24T14:47:03.240Z,3.70
2018-09-24T14:52:12.257Z,5.13
2018-09-24T14:57:21.495Z,4.73
2018-09-24T15:02:30.362Z,3.33
2018-09-24T15:07:40.016Z,3.83
2018-09-24T15:12:49.286Z,5.53
2018-09-24T15:18:05.377Z,4.03
2018-09-24T15:23:14.759Z,4.53
2018-09-24T15:28:24.404Z,4.47
2018-09-24T15:33:33.577Z,5.13
2018-09-24T15:38:42.457Z,5.27
2018-09-24T15:43:58.013Z,4.83
2018-09-24T15:49:07.243Z,5.73
2018-09-24T15:54:16.425Z,3.30
2018-09-24T15:59:25.536Z,4.77
2018-09-24T16:04:34.800Z,4.10
2018-09-24T16:09:44.198Z,5.73
2018-09-24T16:14:53.667Z,7.10
2018-09-24T16:20:02.700Z,4.70
2018-09-24T16:25:11.894Z,5.13
2018-09-24T16:30:21.052Z,3.67
2018-09-24T16:35:30.298Z,5.07
2018-09-24T16:40:40.037Z,5.67
2018-09-24T16:45:49.053Z,4.40
2018-09-24T16:50:58.031Z,3.83
2018-09-24T16:56:07.185Z,3.43
2018-09-24T17:01:16.181Z,3.83
2018-09-24T17:06:25.398Z,2.53
2018-09-24T17:11:34.319Z,3.27
2018-09-24T17:16:43.607Z,3.80
2018-09-24T17:21:53.203Z,4.53
2018-09-24T17:27:12.193Z,3.70
2018-09-24T17:32:21.634Z,3.77
2018-09-24T17:37:30.662Z,5.70
2018-09-24T17:42:40.033Z,4.27
2018-09-24T17:47:56.231Z,6.50
2018-09-24T17:53:05.325Z,5.47
2018-09-24T17:58:14.914Z,3.43
2018-09-24T18:03:23.877Z,5.07
2018-09-24T18:08:32.713Z,4.23
2018-09-24T18:13:41.804Z,6.10
2018-09-24T18:18:51.252Z,2.93
2018-09-24T18:24:00.324Z,7.90
2018-09-24T18:29:11.469Z,4.73
2018-09-24T18:34:20.351Z,7.20
2018-09-24T18:39:29.552Z,5.27
2018-09-24T18:44:39.104Z,4.63
2018-09-24T18:49:48.591Z,3.77
2018-09-24T18:54:58.046Z,6.27
2018-09-24T19:00:07.035Z,4.20
2018-09-24T19:05:16.014Z,3.50
2018-09-24T19:10:24.898Z,6.77
2018-09-24T19:15:33.850Z,5.87
2018-09-24T19:20:43.332Z,6.10
2018-09-24T19:25:52.449Z,4.77
2018-09-24T19:31:01.653Z,5.40
2018-09-24T19:36:10.886Z,4.03
2018-09-24T19:41:20.155Z,6.67
2018-09-24T19:46:29.020Z,6.17
2018-09-24T19:51:38.314Z,5.40
2018-09-24T19:57:00.451Z,6.03
2018-09-24T20:02:09.645Z,5.20
2018-09-24T20:07:18.755Z,8.07
2018-09-24T20:12:27.674Z,5.13
2018-09-24T20:17:36.721Z,8.27
2018-09-24T20:22:45.753Z,6.37
2018-09-24T20:28:02.552Z,5.47
2018-09-24T20:33:11.363Z,4.23
2018-09-24T20:38:20.447Z,4.37
2018-09-24T20:43:29.689Z,5.57
2018-09-24T20:48:38.726Z,8.13
2018-09-24T20:53:48.262Z,4.67
2018-09-24T20:59:04.576Z,6.50
2018-09-24T21:04:14.384Z,6.20
2018-09-24T21:09:23.895Z,5.90
2018-09-24T21:14:32.972Z,7.67
2018-09-24T21:19:42.051Z,6.03
2018-09-24T21:24:51.045Z,5.10
2018-09-24T21:30:00.440Z,6.50
2018-09-24T21:35:09.539Z,5.43
2018-09-24T21:40:18.758Z,3.37
2018-09-24T21:45:27.836Z,3.90
2018-09-24T21:50:36.692Z,5.07
2018-09-24T21:55:45.743Z,4.80
2018-09-24T22:00:54.760Z,6.13
2018-09-24T22:06:03.805Z,5.03
2018-09-24T22:11:12.723Z,7.33
2018-09-24T22:16:21.810Z,4.47
2018-09-24T22:21:31.200Z,3.97
2018-09-24T22:26:40.608Z,6.07
2018-09-24T22:31:49.474Z,4.53
2018-09-24T22:36:58.437Z,6.93
2018-09-24T22:42:07.574Z,4.60
2018-09-24T22:53:01.109Z,6.03
2018-09-24T22:58:10.028Z,4.53
2018-09-24T23:03:19.141Z,4.83
2018-09-24T23:08:28.000Z,4.20
2018-09-24T23:13:37.026Z,6.17
2018-09-24T23:18:49.253Z,4.63
2018-09-24T23:23:58.317Z,4.63
2018-09-24T23:29:14.515Z,8.70
2018-09-24T23:34:23.572Z,6.17
2018-09-24T23:39:33.615Z,5.10
2018-09-24T23:44:42.647Z,4.10
2018-09-24T23:49:51.668Z,5.30
2018-09-24T23:55:00.513Z,5.80
